CheckWX is a tool to help pilots better visualize weather data.  It is not intended as a substitute for an official pre-flight weather briefing.

13:48:45 UTC

EETU METAR
Tartu Airport
Tartu, Estonia
Current

59 mins ago

EETU 071250Z 23011KT 200V260 9999 SCT037 18/11 Q1007
Observed
Jul-7 @ 12:50 UTC
Wind
  • 230° at 11 KTS
Visibility
10,000+ meters
Flight Rules
VFR
Cloud Levels
  • Scattered at 3,700' AGL
Temperature
18°C / 64°F
Dewpoint
11°C / 52°F
Humidity
64%
Altimeter
29.73" Hg
Pressure
1006.92 hPa
Previous

2 hours ago

EETU 071150Z 21012KT 190V250 9999 FEW037 18/11 Q1006
Observed
Jul-7 @ 11:50 UTC
Wind
  • 210° at 12 KTS
Visibility
10,000+ meters
Flight Rules
VFR
Cloud Levels
  • Few at 3,700' AGL
Temperature
18°C / 64°F
Dewpoint
11°C / 52°F
Humidity
64%
Altimeter
29.7" Hg
Pressure
1005.92 hPa
Previous

3 hours ago

EETU 071050Z 23010KT 9999 SCT032 17/11 Q1006
Observed
Jul-7 @ 10:50 UTC
Wind
  • 230° at 10 KTS
Visibility
10,000+ meters
Flight Rules
VFR
Cloud Levels
  • Scattered at 3,200' AGL
Temperature
17°C / 63°F
Dewpoint
11°C / 52°F
Humidity
68%
Altimeter
29.7" Hg
Pressure
1005.92 hPa